Terminal Aerodrome Forecast
Issued by NWS Billings, MT

Home | Current Version | Previous Version | Graphics & Text | Print | Product List | Glossary On
Versions: 1 2 3 4 5 6 7 8 9 10 11 12 13 14
000
FTUS45 KBYZ 271727
TAFMLS
TAF
KMLS 271727Z 2718/2818 16006KT P6SM SCT120
     FM272100 24011KT P6SM SCT120
     FM280700 18007KT P6SM SCT120=

USA.gov is the U.S. government's official web portal to all federal, state and local government web resources and services.